Time;durP1;ratioP1;P1;durP2;ratioP2;P2;SDS_P1;SDS_P2;PMS_P1;PMS_P2;Temp;Humidity;BMP_temperature;BMP_pressure;BME280_temperature;BME280_humidity;BME280_pressure;Samples;Min_cycle;Max_cycle;Signal;HPM_P1;HPM_P2
2022/10/19 00:01:07;;;;;;;3.50;2.42;;;;;;;10.50;85.76;103052.00;5030426;28;100970;-30
2022/10/19 00:03:34;;;;;;;4.07;2.30;;;;;;;10.50;85.58;103057.41;5030612;28;100903;-29
2022/10/19 00:06:08;;;;;;;5.93;2.60;;;;;;;10.51;85.58;103053.75;5030432;28;96696;-29
2022/10/19 00:08:34;;;;;;;5.00;2.17;;;;;;;10.46;85.48;103045.75;5030679;28;96776;-29
2022/10/19 00:11:00;;;;;;;3.08;2.08;;;;;;;10.44;85.53;103054.84;5030773;28;116826;-30
2022/10/19 00:13:25;;;;;;;5.38;2.10;;;;;;;10.43;85.40;103048.53;5031703;28;98204;-29
2022/10/19 00:15:50;;;;;;;3.15;2.20;;;;;;;10.43;85.26;103043.13;5031335;28;104847;-29
2022/10/19 00:18:16;;;;;;;3.35;2.25;;;;;;;10.39;85.19;103045.03;5031454;28;102496;-30
2022/10/19 00:20:41;;;;;;;8.52;2.80;;;;;;;10.34;85.50;103036.09;5032227;27;110338;-32
2022/10/19 00:23:06;;;;;;;7.07;2.08;;;;;;;10.34;85.58;103027.97;5034984;28;99437;-30
2022/10/19 00:25:32;;;;;;;5.50;2.83;;;;;;;10.33;85.68;103028.03;5035212;27;96647;-30
2022/10/19 00:27:57;;;;;;;4.65;2.47;;;;;;;10.35;85.53;103051.44;5035732;28;96774;-29
2022/10/19 00:30:22;;;;;;;5.00;2.50;;;;;;;10.31;86.09;103033.47;5035178;27;99908;-30
2022/10/19 00:32:47;;;;;;;5.35;2.58;;;;;;;10.32;85.77;103031.66;5035194;27;97375;-29
2022/10/19 00:35:13;;;;;;;3.92;2.55;;;;;;;10.30;86.10;103033.53;5034021;27;104757;-29
2022/10/19 00:37:38;;;;;;;5.97;2.40;;;;;;;10.27;86.19;103036.28;5035228;28;96856;-30
2022/10/19 00:40:04;;;;;;;4.80;2.90;;;;;;;10.27;86.34;103041.69;5034415;27;116620;-30
2022/10/19 00:42:29;;;;;;;6.85;2.63;;;;;;;10.29;86.27;103034.47;5035041;28;98355;-29
2022/10/19 00:45:03;;;;;;;6.13;2.88;;;;;;;10.27;86.09;103033.56;5034721;27;101355;-29
2022/10/19 00:47:29;;;;;;;4.05;2.42;;;;;;;10.27;86.09;103044.41;5032577;28;96830;-29
2022/10/19 00:49:56;;;;;;;4.55;2.92;;;;;;;10.28;86.07;103043.50;5033172;28;101040;-29
2022/10/19 00:52:23;;;;;;;5.72;2.78;;;;;;;10.26;86.08;103037.22;5034958;28;97445;-29
2022/10/19 00:54:51;;;;;;;5.25;3.13;;;;;;;10.23;85.96;103042.72;5033354;28;96718;-31
2022/10/19 00:57:17;;;;;;;4.40;2.75;;;;;;;10.24;86.35;103044.50;5033289;28;96957;-29
2022/10/19 00:59:45;;;;;;;6.32;3.05;;;;;;;10.22;86.55;103044.50;5033974;28;99515;-31
2022/10/19 01:02:10;;;;;;;7.70;3.53;;;;;;;10.19;86.66;103040.06;5034581;28;97776;-30
2022/10/19 01:04:41;;;;;;;5.25;2.70;;;;;;;10.21;87.13;103040.03;5033131;28;96682;-31
2022/10/19 01:07:07;;;;;;;5.40;2.55;;;;;;;10.19;87.22;103040.06;5033327;28;96703;-29
2022/10/19 01:09:33;;;;;;;7.45;2.67;;;;;;;10.17;86.80;103036.50;5033048;28;100947;-30
2022/10/19 01:12:03;;;;;;;5.13;2.88;;;;;;;10.16;86.50;103040.16;5032995;28;100761;-29
2022/10/19 01:14:54;;;;;;;5.00;2.50;;;;;;;10.16;86.48;103042.84;5032951;28;96976;-29
2022/10/19 01:17:37;;;;;;;5.53;2.63;;;;;;;10.13;86.76;103042.94;5035083;28;96756;-29
2022/10/19 01:20:30;;;;;;;5.22;2.38;;;;;;;10.10;87.22;103037.56;5034108;28;99463;-30
2022/10/19 01:23:16;;;;;;;5.30;2.60;;;;;;;10.05;87.47;103034.09;5034300;28;97717;-29
2022/10/19 01:26:12;;;;;;;5.30;2.72;;;;;;;10.06;87.04;103034.97;5033744;28;96760;-29
2022/10/19 01:28:49;;;;;;;4.72;2.50;;;;;;;10.06;87.02;103034.97;5034473;28;96395;-30
2022/10/19 01:31:35;;;;;;;5.10;2.78;;;;;;;10.00;87.00;103033.31;5033807;27;97581;-29
2022/10/19 01:34:15;;;;;;;9.15;2.75;;;;;;;10.00;87.02;103034.19;5032311;28;100527;-29
2022/10/19 01:37:08;;;;;;;4.43;2.38;;;;;;;9.96;87.03;103026.19;5032725;28;96656;-30
2022/10/19 01:39:51;;;;;;;9.07;2.70;;;;;;;9.97;87.15;103028.00;5034194;28;96852;-29
2022/10/19 01:42:28;;;;;;;6.07;2.45;;;;;;;9.90;86.99;103013.69;5032658;27;101318;-29
2022/10/19 01:45:02;;;;;;;8.75;3.10;;;;;;;9.87;87.59;103016.50;5032878;28;100829;-30
2022/10/19 01:48:11;;;;;;;4.63;2.40;;;;;;;9.84;87.58;103027.38;5031777;28;96720;-29
2022/10/19 01:51:00;;;;;;;5.30;2.60;;;;;;;9.81;87.45;103024.75;5034095;28;96615;-31
2022/10/19 01:53:29;;;;;;;3.85;2.13;;;;;;;9.79;87.31;103022.06;5033226;28;98714;-30
2022/10/19 01:55:55;;;;;;;4.85;2.75;;;;;;;9.76;87.75;103024.84;5032279;28;100742;-29
2022/10/19 01:58:28;;;;;;;7.50;2.10;;;;;;;9.67;87.62;103011.53;5033815;28;96938;-29
2022/10/19 02:00:58;;;;;;;5.55;2.70;;;;;;;9.63;87.98;103017.97;5032343;28;96842;-30
2022/10/19 02:03:25;;;;;;;5.05;2.28;;;;;;;9.63;88.18;103020.66;5032158;28;101032;-29
2022/10/19 02:05:52;;;;;;;4.43;2.50;;;;;;;9.64;87.73;103016.13;5032229;28;100677;-29
2022/10/19 02:08:25;;;;;;;4.88;2.30;;;;;;;9.65;87.67;103009.78;5032325;28;96527;-29
2022/10/19 02:10:50;;;;;;;3.47;2.10;;;;;;;9.64;87.65;103010.72;5032619;28;96572;-30
2022/10/19 02:13:18;;;;;;;4.82;2.38;;;;;;;9.61;87.31;102998.16;5033405;28;96813;-31
2022/10/19 02:15:47;;;;;;;4.88;2.72;;;;;;;9.60;87.36;102998.19;5031731;28;101108;-31
2022/10/19 02:18:16;;;;;;;3.65;2.08;;;;;;;9.57;87.55;102988.31;5031510;28;97118;-29
2022/10/19 02:20:41;;;;;;;6.43;2.08;;;;;;;9.53;87.49;102978.47;5031828;28;96837;-29
2022/10/19 02:23:07;;;;;;;4.50;2.45;;;;;;;9.56;87.35;102981.13;5033192;28;103708;-29
2022/10/19 02:25:33;;;;;;;6.00;2.80;;;;;;;9.54;87.47;102975.75;5033344;28;97351;-29
2022/10/19 02:28:01;;;;;;;7.72;3.30;;;;;;;9.56;87.25;102983.84;5031945;28;96565;-31
2022/10/19 02:30:27;;;;;;;5.03;2.35;;;;;;;9.51;87.32;102983.94;5031794;28;96837;-29
2022/10/19 02:32:52;;;;;;;7.20;3.15;;;;;;;9.46;87.99;102982.25;5033051;28;99143;-29
2022/10/19 02:35:19;;;;;;;3.60;2.25;;;;;;;9.43;87.81;102991.31;5032221;28;97860;-29
2022/10/19 02:37:44;;;;;;;4.00;2.35;;;;;;;9.43;87.68;102995.84;5031843;28;97213;-29
2022/10/19 02:40:11;;;;;;;6.85;2.33;;;;;;;9.33;87.64;102987.94;5032824;28;96843;-29
2022/10/19 02:42:40;;;;;;;4.72;2.63;;;;;;;9.31;87.98;102987.06;5031018;28;101024;-30
2022/10/19 02:45:11;;;;;;;6.40;2.55;;;;;;;9.30;88.23;102992.53;5031490;28;100675;-30
2022/10/19 02:47:43;;;;;;;4.43;2.77;;;;;;;9.30;87.83;102996.13;5032539;27;96694;-30
2022/10/19 02:50:10;;;;;;;6.80;2.60;;;;;;;9.31;87.71;102992.47;5031596;27;96782;-29
2022/10/19 02:52:36;;;;;;;3.78;2.33;;;;;;;9.32;87.82;102993.41;5032791;28;97569;-30
2022/10/19 02:55:03;;;;;;;4.20;2.35;;;;;;;9.27;87.54;102988.09;5031151;28;101018;-29
2022/10/19 02:57:31;;;;;;;6.38;2.28;;;;;;;9.28;87.46;102989.84;5032760;28;96480;-29
2022/10/19 02:59:56;;;;;;;5.25;2.63;;;;;;;9.26;87.32;102985.41;5031785;28;96795;-29
2022/10/19 03:02:22;;;;;;;4.13;2.33;;;;;;;9.24;87.41;102976.44;5031215;28;100969;-29
2022/10/19 03:04:47;;;;;;;5.57;2.78;;;;;;;9.22;87.17;102979.16;5032427;28;99038;-31
2022/10/19 03:07:16;;;;;;;4.85;1.77;;;;;;;9.24;87.37;102981.84;5032022;27;96585;-29
2022/10/19 03:09:42;;;;;;;11.55;2.47;;;;;;;9.21;87.29;102976.50;5031339;28;97081;-29
2022/10/19 03:12:07;;;;;;;5.88;2.83;;;;;;;9.15;87.79;102972.09;5031076;28;100923;-29
2022/10/19 03:14:33;;;;;;;6.05;2.08;;;;;;;9.16;87.69;102965.78;5032396;27;97868;-29
2022/10/19 03:16:58;;;;;;;5.47;2.40;;;;;;;9.14;87.69;102964.94;5032663;28;96435;-29
2022/10/19 03:19:23;;;;;;;3.05;2.03;;;;;;;9.12;87.63;102962.25;5031891;27;111981;-29
2022/10/19 03:21:49;;;;;;;5.53;2.35;;;;;;;9.10;87.55;102961.38;5032061;28;99216;-31
2022/10/19 03:24:15;;;;;;;3.35;1.90;;;;;;;9.08;87.54;102960.56;5032781;28;97611;-31
2022/10/19 03:26:40;;;;;;;3.30;2.15;;;;;;;9.08;87.55;102959.63;5032516;28;96660;-30
2022/10/19 03:29:05;;;;;;;6.60;2.20;;;;;;;9.08;87.72;102959.63;5032146;28;96721;-30
2022/10/19 03:31:31;;;;;;;6.80;2.95;;;;;;;9.06;87.65;102951.59;5031559;28;99079;-29
2022/10/19 03:33:56;;;;;;;2.90;1.90;;;;;;;9.02;87.63;102951.69;5032109;28;98651;-30
2022/10/19 03:36:27;;;;;;;5.00;2.40;;;;;;;9.02;87.78;102955.25;5032478;27;96611;-30
2022/10/19 03:38:54;;;;;;;2.75;1.90;;;;;;;8.99;87.52;102943.66;5032236;27;96727;-30
2022/10/19 03:41:21;;;;;;;4.93;2.58;;;;;;;8.99;87.52;102951.75;5030598;28;101357;-29
2022/10/19 03:43:47;;;;;;;6.57;2.45;;;;;;;8.96;87.60;102943.69;5032208;28;97338;-29
2022/10/19 03:46:12;;;;;;;4.22;2.00;;;;;;;8.91;87.69;102947.41;5032061;28;96604;-29
2022/10/19 03:48:38;;;;;;;6.45;2.65;;;;;;;8.89;88.05;102951.03;5032138;28;96743;-31
2022/10/19 03:51:06;;;;;;;3.92;2.25;;;;;;;8.86;87.75;102957.38;5030430;28;98276;-29
2022/10/19 03:53:33;;;;;;;3.67;2.22;;;;;;;8.88;87.65;102952.84;5030388;28;101088;-30
2022/10/19 03:56:13;;;;;;;3.13;1.85;;;;;;;8.85;87.49;102957.44;5031941;27;96854;-29
2022/10/19 03:58:40;;;;;;;3.85;2.10;;;;;;;8.82;87.45;102961.09;5035824;28;96543;-29
2022/10/19 04:01:08;;;;;;;4.70;2.47;;;;;;;8.78;87.85;102958.47;5034166;27;101410;-31
2022/10/19 04:03:33;;;;;;;3.80;2.10;;;;;;;8.80;87.73;102968.34;5034104;28;100519;-30
2022/10/19 04:06:05;;;;;;;8.38;1.70;;;;;;;8.80;87.51;102962.94;5035548;27;96519;-29
2022/10/19 04:08:30;;;;;;;2.67;1.73;;;;;;;8.74;87.42;102960.34;5034169;28;96689;-30
2022/10/19 04:11:01;;;;;;;3.60;1.65;;;;;;;8.68;88.05;102955.06;5035536;28;98092;-30
2022/10/19 04:13:27;;;;;;;3.25;1.95;;;;;;;8.69;87.90;102951.44;5034293;28;100655;-30
2022/10/19 04:15:52;;;;;;;3.50;1.90;;;;;;;8.66;87.93;102957.78;5033841;28;96641;-29
2022/10/19 04:18:18;;;;;;;2.97;1.88;;;;;;;8.61;87.86;102953.41;5034270;28;109153;-30
2022/10/19 04:20:43;;;;;;;5.80;2.55;;;;;;;8.61;87.93;102951.59;5034292;28;114990;-30
2022/10/19 04:23:08;;;;;;;2.13;1.63;;;;;;;8.56;87.85;102944.50;5034930;27;99584;-29
2022/10/19 04:25:34;;;;;;;2.92;1.95;;;;;;;8.50;87.92;102940.97;5035215;28;107178;-29
2022/10/19 04:27:59;;;;;;;3.92;2.03;;;;;;;8.52;88.07;102938.25;5035066;28;96736;-30
2022/10/19 04:30:24;;;;;;;6.03;1.88;;;;;;;8.45;88.03;102926.69;5034731;28;112853;-29
2022/10/19 04:32:49;;;;;;;3.90;1.85;;;;;;;8.47;88.13;102935.66;5034612;28;103070;-29
2022/10/19 04:35:15;;;;;;;2.35;1.67;;;;;;;8.44;87.99;102946.53;5034496;28;106640;-30
2022/10/19 04:37:40;;;;;;;12.77;2.03;;;;;;;8.46;88.11;102954.56;5034947;27;102231;-29
2022/10/19 04:40:06;;;;;;;2.80;1.52;;;;;;;8.45;87.79;102958.22;5034548;28;111857;-30
2022/10/19 04:42:32;;;;;;;2.97;1.83;;;;;;;8.44;88.06;102951.91;5033521;28;100934;-29
2022/10/19 04:44:57;;;;;;;2.63;1.55;;;;;;;8.46;88.03;102959.97;5034503;28;96645;-29
2022/10/19 04:47:22;;;;;;;2.90;1.80;;;;;;;8.46;87.87;102954.56;5033781;28;102506;-30
2022/10/19 04:49:47;;;;;;;6.60;1.77;;;;;;;8.47;87.79;102964.47;5035007;28;98028;-30
2022/10/19 04:52:13;;;;;;;1.38;1.00;;;;;;;8.45;87.48;102961.78;5034706;28;97897;-31
2022/10/19 04:54:38;;;;;;;3.40;1.60;;;;;;;8.45;87.70;102964.50;5033858;28;116211;-32
2022/10/19 04:57:03;;;;;;;6.43;1.45;;;;;;;8.42;87.75;102953.75;5033785;28;114246;-29
2022/10/19 04:59:29;;;;;;;2.42;1.48;;;;;;;8.42;87.49;102958.28;5034185;28;109999;-29
2022/10/19 05:01:54;;;;;;;2.85;1.60;;;;;;;8.41;87.61;102951.97;5034032;28;117096;-30
2022/10/19 05:04:19;;;;;;;1.60;1.10;;;;;;;8.40;87.75;102957.41;5034775;28;96865;-29
2022/10/19 05:06:44;;;;;;;1.42;1.00;;;;;;;8.37;87.76;102961.03;5031813;27;106428;-29
2022/10/19 05:09:10;;;;;;;4.30;1.92;;;;;;;8.41;87.85;102965.47;5033062;28;120595;-30
2022/10/19 05:11:35;;;;;;;2.17;1.27;;;;;;;8.42;87.87;102963.69;5034122;28;99271;-29
2022/10/19 05:14:00;;;;;;;1.33;1.10;;;;;;;8.42;87.57;102950.16;5034015;28;100614;-30
2022/10/19 05:16:26;;;;;;;1.58;1.08;;;;;;;8.41;87.88;102943.84;5034148;27;99527;-29
2022/10/19 05:18:57;;;;;;;2.50;1.33;;;;;;;8.41;87.83;102940.28;5034276;27;97422;-30
2022/10/19 05:21:24;;;;;;;2.78;1.50;;;;;;;8.40;87.84;102939.38;5034331;27;98777;-30
2022/10/19 05:23:54;;;;;;;2.78;1.30;;;;;;;8.44;87.86;102946.53;5033046;28;96490;-29
2022/10/19 05:26:22;;;;;;;2.65;1.33;;;;;;;8.46;87.83;102955.50;5034864;27;96515;-29
2022/10/19 05:28:49;;;;;;;5.88;1.80;;;;;;;8.46;87.72;102959.97;5032759;28;100935;-30
2022/10/19 05:31:19;;;;;;;1.27;0.88;;;;;;;8.44;87.47;102961.84;5032563;28;100915;-29
2022/10/19 05:33:45;;;;;;;4.40;1.40;;;;;;;8.43;87.40;102960.91;5033822;28;96594;-30
2022/10/19 05:36:10;;;;;;;1.80;1.25;;;;;;;8.46;87.33;102955.50;5032726;28;96845;-29
2022/10/19 05:38:35;;;;;;;3.05;1.52;;;;;;;8.44;87.57;102941.13;5034025;28;98474;-29
2022/10/19 05:41:01;;;;;;;2.45;1.40;;;;;;;8.44;87.47;102929.44;5033616;28;109894;-29
2022/10/19 05:43:26;;;;;;;2.30;1.50;;;;;;;8.45;87.45;102950.09;5033415;28;114390;-30
2022/10/19 05:45:51;;;;;;;4.40;1.63;;;;;;;8.43;87.50;102935.72;5033392;28;112385;-29
2022/10/19 05:48:16;;;;;;;3.72;1.02;;;;;;;8.41;87.33;102945.66;5032510;28;118112;-30
2022/10/19 05:50:52;;;;;;;2.20;0.95;;;;;;;8.38;87.46;102933.09;5033857;28;109615;-31
2022/10/19 05:53:17;;;;;;;3.15;1.73;;;;;;;8.38;87.14;102924.09;5032560;28;96668;-29
2022/10/19 05:55:42;;;;;;;1.73;1.20;;;;;;;8.34;87.47;102925.06;5033448;28;113217;-31
2022/10/19 05:58:08;;;;;;;4.80;1.60;;;;;;;8.29;87.44;102925.16;5032856;28;104273;-29
2022/10/19 06:00:33;;;;;;;2.20;1.40;;;;;;;8.29;87.65;102933.25;5033197;28;116898;-29
2022/10/19 06:02:58;;;;;;;0.98;0.77;;;;;;;8.27;87.76;102927.91;5034029;27;96460;-29
2022/10/19 06:05:24;;;;;;;1.02;0.93;;;;;;;8.26;88.15;102919.81;5033595;28;99885;-29
2022/10/19 06:07:49;;;;;;;2.75;1.23;;;;;;;8.30;87.86;102910.75;5033449;27;99412;-29
2022/10/19 06:10:14;;;;;;;2.03;1.20;;;;;;;8.28;87.75;102916.16;5033579;27;97846;-30
2022/10/19 06:12:40;;;;;;;1.42;1.02;;;;;;;8.27;87.51;102919.81;5033144;28;97423;-29
2022/10/19 06:15:05;;;;;;;5.85;3.13;;;;;;;8.21;87.75;102919.91;5031851;28;96983;-31
2022/10/19 06:17:31;;;;;;;7.47;3.85;;;;;;;8.21;87.97;102927.13;5032198;27;98049;-29
2022/10/19 06:19:56;;;;;;;4.80;2.90;;;;;;;8.24;87.71;102924.34;5033063;28;97980;-31
2022/10/19 06:22:21;;;;;;;2.35;2.08;;;;;;;8.18;87.99;102917.25;5033189;27;96473;-29
2022/10/19 06:24:47;;;;;;;3.97;2.28;;;;;;;8.18;87.92;102916.38;5033680;27;96880;-30
2022/10/19 06:27:12;;;;;;;2.75;1.65;;;;;;;8.17;88.10;102917.28;5031333;28;117966;-29
2022/10/19 06:29:37;;;;;;;4.07;2.08;;;;;;;8.16;88.18;102913.69;5033140;28;99186;-29
2022/10/19 06:32:03;;;;;;;5.40;2.17;;;;;;;8.17;87.76;102925.38;5032891;28;106460;-30
2022/10/19 06:34:28;;;;;;;3.58;2.25;;;;;;;8.14;87.68;102912.84;5032818;28;96856;-30
2022/10/19 06:36:53;;;;;;;3.28;2.03;;;;;;;8.13;88.09;102924.56;5030803;28;100352;-33
2022/10/19 06:39:19;;;;;;;4.60;2.65;;;;;;;8.15;88.25;102924.50;5031967;28;97737;-30
2022/10/19 06:41:44;;;;;;;2.58;1.85;;;;;;;8.15;88.37;102930.81;5032436;28;96613;-29
2022/10/19 06:44:09;;;;;;;4.25;2.00;;;;;;;8.19;88.12;102934.34;5032334;28;96836;-31
2022/10/19 06:46:35;;;;;;;6.97;2.38;;;;;;;8.17;87.59;102936.19;5031696;28;100604;-30
2022/10/19 06:49:01;;;;;;;3.85;2.05;;;;;;;8.16;87.93;102943.41;5031602;28;115222;-30
2022/10/19 06:51:28;;;;;;;5.22;1.90;;;;;;;8.20;88.00;102945.13;5031405;28;96658;-29
2022/10/19 06:53:55;;;;;;;4.47;2.45;;;;;;;8.20;87.78;102934.34;5031546;28;96860;-29
2022/10/19 06:56:20;;;;;;;13.52;2.85;;;;;;;8.20;88.01;102926.22;5033092;28;97453;-29
2022/10/19 06:58:46;;;;;;;4.82;2.80;;;;;;;8.19;88.24;102924.44;5030844;28;101086;-29
2022/10/19 07:01:12;;;;;;;5.40;1.95;;;;;;;8.18;87.81;102919.09;5032819;28;96538;-29
2022/10/19 07:03:39;;;;;;;3.53;1.85;;;;;;;8.21;88.06;102932.50;5033270;28;96712;-31
2022/10/19 07:06:07;;;;;;;3.35;1.60;;;;;;;8.18;88.42;102922.66;5031203;28;100987;-31
2022/10/19 07:08:34;;;;;;;3.20;1.55;;;;;;;8.21;88.58;102924.41;5031213;28;98886;-31
2022/10/19 07:11:02;;;;;;;2.05;1.25;;;;;;;8.24;88.59;102918.94;5030764;28;97202;-29
2022/10/19 07:13:28;;;;;;;2.42;1.30;;;;;;;8.26;88.29;102919.81;5031180;28;96802;-29
2022/10/19 07:16:12;;;;;;;1.67;1.08;;;;;;;8.30;88.15;102926.94;5032482;28;97449;-31
2022/10/19 07:18:38;;;;;;;2.35;1.40;;;;;;;8.33;88.35;102931.41;5030943;28;100513;-29
2022/10/19 07:21:10;;;;;;;5.32;2.60;;;;;;;8.34;88.42;102939.44;5030561;28;97134;-29
2022/10/19 07:23:37;;;;;;;13.13;5.30;;;;;;;8.36;88.32;102936.75;5031762;27;96886;-29
2022/10/19 07:26:05;;;;;;;20.33;8.13;;;;;;;8.37;88.29;102935.84;5030951;28;101191;-29
2022/10/19 07:28:30;;;;;;;21.05;10.55;;;;;;;8.41;88.49;102933.06;5031291;28;100761;-29
2022/10/19 07:30:56;;;;;;;19.75;9.23;;;;;;;8.43;88.16;102942.03;5030846;27;114954;-29
2022/10/19 07:33:21;;;;;;;7.03;3.85;;;;;;;8.46;88.30;102927.56;5032571;28;96855;-29
2022/10/19 07:35:46;;;;;;;3.42;2.10;;;;;;;8.46;88.19;102933.88;5031851;27;97833;-29
2022/10/19 07:38:12;;;;;;;3.42;2.13;;;;;;;8.46;87.59;102928.47;5032229;27;97845;-30
2022/10/19 07:40:37;;;;;;;2.40;1.42;;;;;;;8.48;88.44;102915.81;5032452;27;102192;-29
2022/10/19 07:43:03;;;;;;;3.13;1.75;;;;;;;8.49;88.43;102914.91;5031862;27;97931;-29
2022/10/19 07:45:28;;;;;;;3.85;1.90;;;;;;;8.54;88.45;102922.91;5030609;28;100938;-29
2022/10/19 07:47:54;;;;;;;1.65;1.17;;;;;;;8.55;88.42;102922.00;5031331;28;97883;-29
2022/10/19 07:50:21;;;;;;;2.10;1.17;;;;;;;8.56;88.09;102914.81;5032377;27;97184;-29
2022/10/19 07:52:47;;;;;;;2.22;1.17;;;;;;;8.57;87.95;102911.16;5030951;28;96810;-29
2022/10/19 07:55:12;;;;;;;3.20;1.60;;;;;;;8.60;87.74;102909.28;5032074;27;97890;-31
2022/10/19 07:57:37;;;;;;;2.42;1.40;;;;;;;8.62;88.41;102907.44;5031199;28;117586;-29
2022/10/19 08:00:03;;;;;;;4.07;1.98;;;;;;;8.63;88.19;102905.66;5030886;28;112956;-29
2022/10/19 08:02:28;;;;;;;4.43;1.50;;;;;;;8.65;88.15;102902.00;5031817;27;96790;-29
2022/10/19 08:04:54;;;;;;;3.83;2.08;;;;;;;8.70;87.96;102916.28;5031312;28;117727;-29
2022/10/19 08:07:19;;;;;;;3.22;1.70;;;;;;;8.72;88.03;102902.75;5031359;28;110877;-29
2022/10/19 08:09:44;;;;;;;2.47;1.73;;;;;;;8.73;88.20;102898.25;5031907;27;96485;-29
2022/10/19 08:12:10;;;;;;;2.50;1.42;;;;;;;8.75;87.85;102890.97;5031466;27;101207;-29
2022/10/19 08:14:35;;;;;;;2.10;1.20;;;;;;;8.75;88.23;102889.19;5031541;27;97928;-28
2022/10/19 08:17:00;;;;;;;1.55;1.20;;;;;;;8.79;88.35;102888.19;5032112;28;99423;-29
2022/10/19 08:19:26;;;;;;;3.90;1.60;;;;;;;8.85;88.14;102876.38;5031855;27;96625;-29
2022/10/19 08:21:51;;;;;;;16.85;4.57;;;;;;;8.88;88.29;102879.88;5031762;27;96736;-29
2022/10/19 08:24:18;;;;;;;11.75;4.28;;;;;;;8.91;88.01;102868.09;5030179;28;99558;-33
2022/10/19 08:26:44;;;;;;;25.85;7.57;;;;;;;8.96;88.04;102870.72;5028451;28;101142;-29
2022/10/19 08:29:15;;;;;;;17.77;6.50;;;;;;;9.03;88.30;102866.94;5028902;27;96997;-30
2022/10/19 08:31:43;;;;;;;9.35;3.55;;;;;;;9.08;88.30;102873.13;5029167;28;96798;-30
2022/10/19 08:34:08;;;;;;;13.13;4.90;;;;;;;9.15;88.31;102872.06;5029981;28;100882;-30
2022/10/19 08:36:34;;;;;;;24.27;7.38;;;;;;;9.20;88.63;102871.97;5031356;27;97323;-29
2022/10/19 08:39:01;;;;;;;48.28;11.32;;;;;;;9.24;88.47;102861.03;5031479;28;97204;-29
2022/10/19 08:41:38;;;;;;;35.50;10.55;;;;;;;9.35;88.59;102864.38;5030005;27;97070;-33
2022/10/19 08:44:19;;;;;;;22.98;6.75;;;;;;;9.42;88.16;102867.84;5033690;27;97950;-29
2022/10/19 08:46:53;;;;;;;32.92;7.47;;;;;;;9.50;87.84;102879.34;5033985;27;97914;-29
2022/10/19 08:49:22;;;;;;;42.85;9.52;;;;;;;9.56;87.78;102879.22;5033750;28;96665;-29
2022/10/19 08:51:53;;;;;;;24.73;9.32;;;;;;;9.60;88.47;102868.31;5033234;28;97053;-31
2022/10/19 08:54:18;;;;;;;11.63;5.32;;;;;;;9.67;87.95;102868.09;5033364;28;98837;-29
2022/10/19 08:56:52;;;;;;;18.25;8.05;;;;;;;9.78;88.09;102873.25;5034479;27;99100;-29
2022/10/19 08:59:31;;;;;;;8.48;3.88;;;;;;;9.84;87.94;102866.78;5033229;28;96688;-29
2022/10/19 09:02:09;;;;;;;8.02;3.00;;;;;;;9.92;87.41;102864.78;5034832;27;96485;-29
2022/10/19 09:04:41;;;;;;;11.05;2.70;;;;;;;9.95;88.52;102865.56;5033045;28;101577;-30
2022/10/19 09:07:23;;;;;;;7.38;1.80;;;;;;;10.07;87.83;102872.50;5033492;28;99004;-29
2022/10/19 09:10:27;;;;;;;2.83;1.77;;;;;;;10.15;88.13;102867.78;5034451;27;96452;-31
2022/10/19 09:12:59;;;;;;;1.65;1.13;;;;;;;10.25;87.56;102884.66;4972164;28;96894;-30
2022/10/19 09:15:26;;;;;;;2.88;1.50;;;;;;;10.38;87.41;102879.81;5019473;28;100919;-29
2022/10/19 09:17:51;;;;;;;2.67;1.20;;;;;;;10.50;87.29;102881.28;5034253;28;97895;-29
2022/10/19 09:20:28;;;;;;;2.97;1.30;;;;;;;10.58;87.11;102884.66;5034531;27;96446;-29
2022/10/19 09:23:04;;;;;;;3.60;1.00;;;;;;;10.69;86.68;102887.06;5034278;27;96818;-31
2022/10/19 09:25:33;;;;;;;1.98;0.90;;;;;;;10.81;86.42;102875.84;5032673;28;101094;-29
2022/10/19 09:28:31;;;;;;;1.58;0.57;;;;;;;10.97;85.49;102882.59;5032809;28;100928;-30
2022/10/19 09:30:57;;;;;;;1.15;0.68;;;;;;;11.09;84.61;102877.75;5029447;28;100181;-29
2022/10/19 09:33:32;;;;;;;5.53;1.23;;;;;;;11.19;84.12;102866.53;5034454;27;96793;-29
2022/10/19 09:35:59;;;;;;;2.38;0.60;;;;;;;11.41;83.94;102857.69;5032738;28;100901;-29
2022/10/19 09:38:27;;;;;;;6.25;1.15;;;;;;;11.56;82.44;102853.59;5033868;27;97441;-29
2022/10/19 09:40:53;;;;;;;1.70;1.00;;;;;;;11.79;82.71;102866.38;5032298;28;97263;-32
2022/10/19 09:43:20;;;;;;;3.28;1.20;;;;;;;12.04;82.08;102858.31;5033887;28;96875;-29
2022/10/19 09:46:08;;;;;;;2.45;1.02;;;;;;;12.20;79.83;102845.06;5032433;28;101309;-29
2022/10/19 09:48:48;;;;;;;4.32;1.33;;;;;;;12.39;79.49;102831.69;5032112;28;101330;-29
2022/10/19 09:51:15;;;;;;;2.13;1.23;;;;;;;12.52;78.68;102825.72;5032647;28;96621;-29
2022/10/19 09:53:46;;;;;;;1.55;0.98;;;;;;;12.66;77.60;102822.50;5031678;27;97037;-29
2022/10/19 09:56:20;;;;;;;6.32;1.25;;;;;;;12.68;78.40;102812.44;5032428;28;100950;-29
2022/10/19 09:58:50;;;;;;;3.90;1.10;;;;;;;12.72;77.95;102814.09;5032631;28;100785;-29
2022/10/19 10:01:34;;;;;;;0.95;0.55;;;;;;;12.79;77.76;102805.69;5032486;28;96686;-29
2022/10/19 10:04:12;;;;;;;5.25;1.70;;;;;;;12.83;77.63;102800.06;5032293;28;97149;-31
2022/10/19 10:06:38;;;;;;;2.78;1.13;;;;;;;12.97;78.18;102799.53;5031790;28;101100;-29
2022/10/19 10:09:03;;;;;;;2.35;0.90;;;;;;;13.09;77.20;102788.16;5032217;28;101009;-29
2022/10/19 10:11:32;;;;;;;2.72;1.00;;;;;;;13.09;76.54;102793.59;5033646;27;96494;-29
2022/10/19 10:14:05;;;;;;;1.30;0.55;;;;;;;13.08;75.13;102790.91;5033254;27;96806;-28
2022/10/19 10:16:34;;;;;;;6.05;1.60;;;;;;;13.21;75.08;102788.59;5033193;27;98933;-30
2022/10/19 10:19:04;;;;;;;0.82;0.40;;;;;;;13.18;73.62;102793.22;5033165;27;98997;-29
2022/10/19 10:21:35;;;;;;;0.98;0.47;;;;;;;13.29;74.61;102781.91;5032086;28;97570;-29
2022/10/19 10:24:15;;;;;;;1.80;0.90;;;;;;;13.52;73.99;102780.94;5033786;28;96671;-29
2022/10/19 10:26:44;;;;;;;2.58;0.98;;;;;;;13.63;73.60;102769.56;5033505;27;97972;-30
2022/10/19 10:29:23;;;;;;;1.55;0.80;;;;;;;13.80;71.94;102769.72;5031729;28;101302;-29
2022/10/19 10:32:04;;;;;;;3.33;1.08;;;;;;;14.01;71.99;102776.06;5032849;28;96480;-29
2022/10/19 10:34:37;;;;;;;6.33;2.97;;;;;;;14.12;70.93;102775.56;5033514;28;96490;-29
2022/10/19 10:37:06;;;;;;;2.72;1.25;;;;;;;14.20;70.58;102753.38;5031757;28;100929;-29
2022/10/19 10:39:32;;;;;;;2.20;1.08;;;;;;;14.17;70.03;102748.97;5031522;28;100683;-29
2022/10/19 10:42:06;;;;;;;4.18;0.77;;;;;;;14.16;69.24;102754.50;5031973;28;96498;-29
2022/10/19 10:44:35;;;;;;;2.10;0.85;;;;;;;14.12;70.19;102740.13;5031846;28;96859;-29
2022/10/19 10:47:04;;;;;;;3.05;1.17;;;;;;;14.33;71.20;102746.44;5031258;28;101437;-29
2022/10/19 10:49:35;;;;;;;3.08;0.95;;;;;;;14.29;70.10;102735.72;5031353;28;100796;-29
2022/10/19 10:52:08;;;;;;;5.57;1.20;;;;;;;14.44;69.87;102745.91;5032921;28;96670;-29
2022/10/19 10:54:34;;;;;;;2.67;0.90;;;;;;;14.50;68.80;102729.25;5031615;28;96895;-30
2022/10/19 10:57:15;;;;;;;3.50;1.00;;;;;;;14.73;68.32;102730.91;5032244;27;99318;-28
2022/10/19 10:59:55;;;;;;;2.53;0.83;;;;;;;14.88;68.52;102733.84;5031306;28;98864;-30
2022/10/19 11:02:45;;;;;;;2.53;0.82;;;;;;;15.10;67.55;102730.94;5031263;28;96618;-31
2022/10/19 11:05:17;;;;;;;2.78;0.70;;;;;;;15.18;65.92;102731.41;5032862;27;96678;-29
2022/10/19 11:07:46;;;;;;;3.85;0.77;;;;;;;15.13;64.94;102731.63;5032514;27;99399;-31
2022/10/19 11:10:16;;;;;;;1.00;0.63;;;;;;;15.21;66.01;102728.53;5031067;28;100850;-30
2022/10/19 11:12:50;;;;;;;6.93;0.90;;;;;;;15.38;67.83;102720.38;5031133;28;96776;-29
2022/10/19 11:15:15;;;;;;;1.40;0.52;;;;;;;15.34;65.17;102718.75;5031439;28;97015;-31
2022/10/19 11:17:52;;;;;;;3.45;0.88;;;;;;;15.32;64.94;102717.06;5032431;27;99463;-29
2022/10/19 11:20:18;;;;;;;3.58;1.10;;;;;;;15.45;64.33;102715.47;5032559;28;97519;-29
2022/10/19 11:23:12;;;;;;;8.43;1.00;;;;;;;15.37;64.55;102706.78;5031163;27;117079;-29
2022/10/19 11:25:51;;;;;;;1.45;0.93;;;;;;;15.38;64.27;102708.56;5032813;27;96553;-30
2022/10/19 11:28:31;;;;;;;2.38;1.40;;;;;;;15.47;65.42;102697.16;5030960;28;101110;-29
2022/10/19 11:31:06;;;;;;;5.05;1.08;;;;;;;15.71;64.10;102697.75;5031037;28;100784;-29
2022/10/19 11:33:43;;;;;;;1.88;0.98;;;;;;;15.82;63.89;102689.81;5031031;28;96697;-29
2022/10/19 11:36:14;;;;;;;6.63;1.20;;;;;;;15.87;62.66;102674.09;5031194;28;96741;-29